Time;durP1;ratioP1;P1;durP2;ratioP2;P2;SDS_P1;SDS_P2;PMS_P1;PMS_P2;Temp;Humidity;BMP_temperature;BMP_pressure;BME280_temperature;BME280_humidity;BME280_pressure;Samples;Min_cycle;Max_cycle;Signal;HPM_P1;HPM_P2
2021/03/08 00:02:09;;;;;;;5.65;3.90;;;3.90;86.70;;;;;;4972315;28;20052;-94
2021/03/08 00:04:34;;;;;;;8.15;4.03;;;3.90;87.60;;;;;;4961581;28;20043;-93
2021/03/08 00:07:00;;;;;;;6.88;3.78;;;3.80;87.80;;;;;;4951637;28;20069;-94
2021/03/08 00:09:26;;;;;;;7.68;4.22;;;3.80;88.10;;;;;;4947193;28;20093;-94
2021/03/08 00:11:51;;;;;;;6.13;4.55;;;3.80;88.30;;;;;;4960743;28;20123;-94
2021/03/08 00:14:17;;;;;;;6.75;3.80;;;3.80;88.10;;;;;;4972369;28;20038;-94
2021/03/08 00:16:43;;;;;;;7.68;4.22;;;3.80;88.50;;;;;;4960492;28;20077;-94
2021/03/08 00:19:09;;;;;;;5.85;3.53;;;3.80;88.10;;;;;;4960968;28;20035;-94
2021/03/08 00:21:34;;;;;;;7.95;5.25;;;3.80;88.40;;;;;;4968832;28;20034;-93
2021/03/08 00:24:00;;;;;;;6.55;4.50;;;3.80;88.10;;;;;;4976577;28;20034;-94
2021/03/08 00:26:26;;;;;;;6.85;4.35;;;3.70;88.20;;;;;;4980383;28;20038;-93
2021/03/08 00:28:51;;;;;;;6.50;4.63;;;3.70;88.30;;;;;;4974413;28;20038;-93
2021/03/08 00:31:17;;;;;;;6.55;4.20;;;3.70;88.20;;;;;;4968122;28;20039;-93
2021/03/08 00:33:43;;;;;;;10.60;4.00;;;3.70;88.10;;;;;;4965802;28;20039;-93
2021/03/08 00:36:08;;;;;;;6.95;4.30;;;3.70;88.50;;;;;;4964479;28;20104;-90
2021/03/08 00:38:34;;;;;;;5.10;4.28;;;3.70;88.30;;;;;;4963908;28;20039;-93
2021/03/08 00:41:00;;;;;;;7.97;4.70;;;3.70;88.60;;;;;;4964452;28;20046;-90
2021/03/08 00:43:25;;;;;;;6.50;4.20;;;3.60;89.00;;;;;;4971687;28;20050;-93
2021/03/08 00:45:51;;;;;;;7.10;4.57;;;3.70;89.10;;;;;;4963416;28;20043;-91
2021/03/08 00:48:17;;;;;;;8.57;5.35;;;3.70;89.30;;;;;;4960074;28;20046;-91
2021/03/08 00:50:42;;;;;;;5.65;3.97;;;3.80;89.10;;;;;;4944494;29;20389;-91
2021/03/08 00:53:09;;;;;;;6.95;5.32;;;3.80;89.10;;;;;;4971315;28;20031;-91
2021/03/08 00:55:34;;;;;;;5.40;4.70;;;3.80;89.20;;;;;;4963139;28;20449;-91
2021/03/08 00:58:00;;;;;;;10.32;4.88;;;3.80;89.60;;;;;;4964237;28;20117;-91
2021/03/08 01:00:29;;;;;;;7.15;3.97;;;3.80;89.70;;;;;;4966644;28;20144;-91
2021/03/08 01:02:56;;;;;;;7.70;4.15;;;3.70;89.70;;;;;;4976736;28;20043;-91
2021/03/08 01:05:22;;;;;;;5.88;4.13;;;3.60;89.90;;;;;;4959402;28;20043;-91
2021/03/08 01:07:49;;;;;;;6.30;5.00;;;3.60;90.20;;;;;;4944092;28;20046;-93
2021/03/08 01:10:19;;;;;;;6.65;4.80;;;3.60;90.30;;;;;;4952567;28;20039;-92
2021/03/08 01:12:44;;;;;;;9.15;4.43;;;3.60;90.30;;;;;;4963323;28;20035;-94
2021/03/08 01:15:11;;;;;;;7.25;4.22;;;3.60;90.50;;;;;;4967956;28;20043;-93
2021/03/08 01:17:37;;;;;;;4.75;3.95;;;3.60;90.40;;;;;;4963588;28;20066;-93
2021/03/08 01:20:08;;;;;;;6.07;4.53;;;3.50;90.80;;;;;;4963131;28;20034;-93
2021/03/08 01:22:34;;;;;;;7.95;4.70;;;3.50;90.80;;;;;;4963342;28;20046;-93
2021/03/08 01:25:00;;;;;;;6.45;5.00;;;3.50;90.90;;;;;;4983840;28;20377;-93
2021/03/08 01:27:25;;;;;;;7.93;5.00;;;3.40;91.00;;;;;;5037172;28;20050;-92
2021/03/08 01:29:51;;;;;;;6.63;4.72;;;3.40;91.20;;;;;;4963068;28;20045;-93
2021/03/08 01:32:16;;;;;;;5.63;4.72;;;3.40;91.40;;;;;;4976975;28;20124;-93
2021/03/08 01:34:42;;;;;;;9.55;4.90;;;3.40;91.40;;;;;;4978235;28;20051;-92
2021/03/08 01:37:07;;;;;;;12.73;4.97;;;3.40;91.50;;;;;;4963236;28;20039;-91
2021/03/08 01:39:33;;;;;;;5.93;4.55;;;3.40;91.50;;;;;;5034070;28;20052;-92
2021/03/08 01:41:58;;;;;;;8.13;4.72;;;3.30;91.70;;;;;;4995375;28;20913;-92
2021/03/08 01:44:24;;;;;;;7.70;5.22;;;3.40;91.60;;;;;;4972528;28;20066;-93
2021/03/08 01:46:50;;;;;;;10.02;6.05;;;3.40;91.60;;;;;;4969755;28;20030;-93
2021/03/08 01:49:16;;;;;;;6.57;5.22;;;3.50;91.50;;;;;;4982218;28;20038;-93
2021/03/08 01:51:44;;;;;;;7.38;4.97;;;3.50;91.50;;;;;;4981994;28;20108;-93
2021/03/08 01:54:10;;;;;;;6.45;4.80;;;3.50;91.60;;;;;;4967614;28;20130;-93
2021/03/08 01:56:36;;;;;;;6.63;5.07;;;3.50;91.50;;;;;;4979235;28;20340;-93
2021/03/08 01:59:01;;;;;;;7.05;4.75;;;3.50;91.50;;;;;;4962208;28;20043;-92
2021/03/08 02:01:28;;;;;;;10.50;5.55;;;3.50;91.50;;;;;;4961389;28;20442;-92
2021/03/08 02:03:53;;;;;;;10.00;5.70;;;3.50;91.70;;;;;;4963761;28;20465;-93
2021/03/08 02:06:19;;;;;;;8.57;5.53;;;3.50;91.60;;;;;;4966881;28;20130;-94
2021/03/08 02:08:44;;;;;;;12.80;5.35;;;3.60;91.60;;;;;;4971658;28;20378;-93
2021/03/08 02:11:10;;;;;;;8.45;5.47;;;3.60;91.70;;;;;;4963790;28;20088;-93
2021/03/08 02:13:50;;;;;;;11.68;6.72;;;3.60;91.80;;;;;;4983453;28;20043;-93
2021/03/08 02:16:42;;;;;;;8.93;5.65;;;3.60;91.80;;;;;;4953193;28;20412;-93
2021/03/08 02:19:36;;;;;;;8.10;6.27;;;3.60;91.80;;;;;;4956731;28;20420;-93
2021/03/08 02:22:39;;;;;;;18.02;6.25;;;3.60;91.80;;;;;;5042950;28;20421;-94
2021/03/08 02:25:04;;;;;;;;;;;3.60;91.80;;;;;;5054702;28;20042;-92
2021/03/08 02:27:52;;;;;;;7.43;5.88;;;3.60;91.90;;;;;;5053312;28;19917;-91
2021/03/08 02:30:39;;;;;;;8.20;6.25;;;3.60;91.90;;;;;;4977401;28;20045;-92
2021/03/08 02:33:07;;;;;;;12.00;6.18;;;3.60;92.00;;;;;;4942054;28;20336;-92
2021/03/08 02:35:55;;;;;;;7.57;5.57;;;3.60;92.20;;;;;;4953395;28;20070;-92
2021/03/08 02:38:26;;;;;;;11.88;7.13;;;3.70;92.00;;;;;;4957535;28;20035;-92
2021/03/08 02:41:00;;;;;;;11.77;6.30;;;3.70;92.00;;;;;;4942065;28;20035;-92
2021/03/08 02:43:38;;;;;;;10.80;6.93;;;3.70;92.10;;;;;;4950037;28;20041;-93
2021/03/08 02:46:14;;;;;;;9.75;6.10;;;3.70;92.10;;;;;;4969778;28;20038;-94
2021/03/08 02:48:43;;;;;;;12.43;7.05;;;3.70;92.10;;;;;;4979855;28;20084;-94
2021/03/08 02:51:11;;;;;;;10.65;7.10;;;3.60;92.30;;;;;;4980594;28;20281;-94
2021/03/08 02:53:40;;;;;;;11.43;7.22;;;3.60;92.60;;;;;;4977546;28;20038;-94
2021/03/08 02:56:12;;;;;;;10.43;6.63;;;3.60;92.50;;;;;;4940968;28;624921;-94
2021/03/08 02:58:40;;;;;;;10.07;6.43;;;3.70;92.40;;;;;;4957288;28;20397;-94
2021/03/08 03:01:08;;;;;;;12.27;7.07;;;3.70;92.40;;;;;;4970000;28;20293;-93
2021/03/08 03:03:39;;;;;;;11.48;6.30;;;3.80;92.50;;;;;;4970521;28;20384;-94
2021/03/08 03:06:07;;;;;;;10.43;7.05;;;3.80;92.60;;;;;;4961464;28;20105;-94
2021/03/08 03:08:42;;;;;;;9.52;7.25;;;3.80;92.60;;;;;;4967903;28;20129;-94
2021/03/08 03:11:17;;;;;;;10.85;7.80;;;3.80;92.70;;;;;;4978443;28;20121;-94
2021/03/08 03:13:47;;;;;;;11.52;7.00;;;3.80;92.70;;;;;;4981062;28;20297;-94
2021/03/08 03:16:23;;;;;;;10.52;7.43;;;3.80;92.70;;;;;;4959135;28;20114;-94
2021/03/08 03:19:01;;;;;;;15.35;7.97;;;3.80;92.70;;;;;;4961792;28;20047;-94
2021/03/08 03:21:33;;;;;;;9.93;7.40;;;3.80;93.00;;;;;;4972414;28;20038;-95
2021/03/08 03:24:03;;;;;;;12.30;7.43;;;3.80;92.70;;;;;;4962412;28;20035;-94
2021/03/08 03:26:46;;;;;;;9.60;7.05;;;3.90;92.80;;;;;;5007919;28;20103;-94
2021/03/08 03:29:20;;;;;;;9.88;6.40;;;3.80;92.80;;;;;;4971619;28;20103;-94
2021/03/08 03:31:49;;;;;;;13.10;8.00;;;3.90;92.80;;;;;;4958073;28;20356;-93
2021/03/08 03:34:24;;;;;;;14.30;8.90;;;3.80;92.90;;;;;;4969009;28;20030;-93
2021/03/08 03:36:54;;;;;;;17.17;8.43;;;3.90;92.90;;;;;;4958676;28;20038;-92
2021/03/08 03:39:23;;;;;;;12.95;8.18;;;3.80;93.00;;;;;;5013345;28;20386;-94
2021/03/08 03:42:03;;;;;;;12.35;7.57;;;3.90;93.00;;;;;;4975667;28;20313;-95
2021/03/08 03:44:32;;;;;;;14.07;8.13;;;3.90;93.00;;;;;;4961068;28;20043;-95
2021/03/08 03:47:01;;;;;;;22.10;8.57;;;3.80;93.10;;;;;;4960763;28;20278;-94
2021/03/08 03:49:35;;;;;;;11.98;8.13;;;3.70;93.20;;;;;;4959749;28;20045;-94
2021/03/08 03:52:04;;;;;;;12.30;8.13;;;3.70;93.40;;;;;;4943502;28;20343;-95
2021/03/08 03:54:32;;;;;;;13.00;7.95;;;3.70;93.40;;;;;;4963743;28;20042;-93
2021/03/08 03:57:11;;;;;;;16.63;8.02;;;3.70;93.40;;;;;;4979860;28;20065;-93
2021/03/08 03:59:52;;;;;;;11.68;8.25;;;3.70;93.50;;;;;;4969341;28;20404;-93
2021/03/08 04:02:27;;;;;;;12.95;7.53;;;3.70;93.60;;;;;;4967654;28;20304;-94
2021/03/08 04:05:35;;;;;;;15.55;8.70;;;3.70;93.70;;;;;;4961876;28;20412;-94
2021/03/08 04:08:05;;;;;;;13.73;8.85;;;3.70;93.70;;;;;;4975858;28;20035;-93
2021/03/08 04:10:34;;;;;;;18.35;8.38;;;3.70;93.80;;;;;;4961669;28;20039;-94
2021/03/08 04:13:12;;;;;;;15.88;8.18;;;3.70;93.80;;;;;;4961581;28;20046;-93
2021/03/08 04:15:47;;;;;;;12.50;9.10;;;3.70;93.80;;;;;;4965192;28;20046;-93
2021/03/08 04:18:18;;;;;;;12.70;8.18;;;3.70;94.00;;;;;;4961492;28;20422;-91
2021/03/08 04:20:47;;;;;;;15.27;9.43;;;3.70;94.00;;;;;;4966075;28;20039;-91
2021/03/08 04:23:19;;;;;;;12.07;8.82;;;3.80;94.00;;;;;;4957690;28;20351;-94
2021/03/08 04:25:47;;;;;;;11.17;7.20;;;3.80;94.00;;;;;;4960542;28;20145;-93
2021/03/08 04:28:16;;;;;;;12.65;9.20;;;3.90;93.90;;;;;;4949093;28;20279;-93
2021/03/08 04:30:48;;;;;;;16.67;9.75;;;3.90;93.90;;;;;;5041042;28;20325;-93
2021/03/08 04:33:25;;;;;;;18.95;10.40;;;3.90;94.00;;;;;;5028951;28;20035;-93
2021/03/08 04:35:54;;;;;;;16.02;10.15;;;3.90;93.90;;;;;;4960876;28;20074;-93
2021/03/08 04:38:24;;;;;;;16.73;9.52;;;3.90;93.90;;;;;;4954906;28;20100;-93
2021/03/08 04:41:03;;;;;;;18.70;9.40;;;3.90;93.90;;;;;;4959878;28;20043;-95
2021/03/08 04:43:47;;;;;;;21.58;10.35;;;4.00;93.90;;;;;;4964123;28;20133;-94
2021/03/08 04:46:18;;;;;;;17.92;10.35;;;4.00;93.90;;;;;;4976378;28;20356;-94
2021/03/08 04:48:48;;;;;;;16.55;9.38;;;4.00;93.90;;;;;;4973979;28;20035;-94
2021/03/08 04:51:33;;;;;;;16.27;11.15;;;4.00;93.90;;;;;;4960578;28;20031;-95
2021/03/08 04:54:09;;;;;;;18.83;9.65;;;4.10;93.90;;;;;;4960150;28;20070;-94
2021/03/08 04:56:38;;;;;;;16.40;10.45;;;4.10;93.90;;;;;;4958098;28;20043;-94
2021/03/08 04:59:07;;;;;;;20.10;10.88;;;4.20;93.90;;;;;;4969362;28;20469;-94
2021/03/08 05:01:37;;;;;;;18.30;11.07;;;4.20;93.80;;;;;;4959438;28;20035;-94
2021/03/08 05:04:10;;;;;;;18.27;10.73;;;4.20;93.80;;;;;;5011399;28;20038;-94
2021/03/08 05:06:44;;;;;;;15.90;9.82;;;4.30;93.80;;;;;;4974109;28;20046;-93
2021/03/08 05:09:22;;;;;;;23.67;13.13;;;4.30;93.80;;;;;;4971277;28;20038;-94
2021/03/08 05:12:00;;;;;;;22.77;11.18;;;4.30;93.80;;;;;;5063151;28;20091;-94
2021/03/08 05:14:30;;;;;;;20.42;11.75;;;4.40;93.80;;;;;;4946960;29;20394;-94
2021/03/08 05:17:03;;;;;;;28.08;14.00;;;4.30;93.80;;;;;;4974544;28;20034;-94
2021/03/08 05:19:29;;;;;;;24.25;12.82;;;4.30;93.90;;;;;;4982524;28;20133;-94
2021/03/08 05:22:01;;;;;;;23.83;13.05;;;4.40;93.90;;;;;;4981932;28;20042;-95
2021/03/08 05:24:31;;;;;;;24.90;14.90;;;4.30;93.90;;;;;;4962764;28;20034;-95
2021/03/08 05:26:57;;;;;;;21.90;13.15;;;4.40;93.90;;;;;;4962143;28;20062;-94
2021/03/08 05:29:23;;;;;;;32.33;15.30;;;4.40;94.00;;;;;;5004083;28;20038;-94
2021/03/08 05:32:24;;;;;;;27.13;13.80;;;4.30;94.20;;;;;;4965992;28;20031;-94
2021/03/08 05:34:54;;;;;;;27.58;14.13;;;4.30;94.30;;;;;;4976156;28;20046;-93
2021/03/08 05:37:21;;;;;;;32.72;16.15;;;4.30;94.20;;;;;;4961411;28;20050;-94
2021/03/08 05:39:50;;;;;;;28.15;14.48;;;4.30;94.20;;;;;;4952708;28;20848;-93
2021/03/08 05:42:17;;;;;;;25.98;14.25;;;4.30;94.10;;;;;;4962711;28;20057;-94
2021/03/08 05:45:00;;;;;;;34.08;14.63;;;4.30;94.10;;;;;;4980730;28;20386;-93
2021/03/08 05:48:00;;;;;;;29.70;14.70;;;4.30;94.20;;;;;;4971782;28;20125;-93
2021/03/08 05:51:12;;;;;;;30.35;15.48;;;4.30;94.20;;;;;;5061682;28;20046;-93
2021/03/08 05:54:17;;;;;;;29.80;14.40;;;4.20;94.10;;;;;;4965526;28;20035;-94
2021/03/08 05:57:20;;;;;;;40.33;18.55;;;4.20;94.10;;;;;;5031574;28;20056;-92
2021/03/08 06:00:16;;;;;;;30.38;16.73;;;4.30;94.00;;;;;;5052802;28;20045;-92
2021/03/08 06:03:10;;;;;;;43.80;23.85;;;4.30;94.00;;;;;;5049838;28;20037;-92
2021/03/08 06:06:07;;;;;;;33.65;19.65;;;4.30;94.20;;;;;;5067780;28;20044;-92
2021/03/08 06:09:06;;;;;;;163.00;88.43;;;4.30;94.20;;;;;;5040645;28;20029;-91
2021/03/08 06:11:33;;;;;;;35.25;20.05;;;4.30;94.10;;;;;;5022618;28;20044;-90
2021/03/08 06:14:02;;;;;;;29.33;16.05;;;4.30;94.10;;;;;;5052076;28;20040;-91
2021/03/08 06:16:36;;;;;;;33.83;16.00;;;4.30;94.20;;;;;;5048964;28;20601;-91
2021/03/08 06:19:09;;;;;;;32.05;15.45;;;4.30;94.30;;;;;;5060903;28;20036;-92
2021/03/08 06:21:38;;;;;;;29.17;15.98;;;4.30;94.30;;;;;;5078380;28;20036;-92
2021/03/08 06:24:46;;;;;;;37.25;16.77;;;4.30;94.20;;;;;;5052305;28;20072;-91
2021/03/08 06:27:27;;;;;;;28.92;15.82;;;4.40;94.20;;;;;;4987705;28;20075;-92
2021/03/08 06:30:03;;;;;;;29.42;15.32;;;4.40;94.10;;;;;;5038825;28;20314;-91
2021/03/08 06:32:31;;;;;;;26.77;14.23;;;4.40;94.00;;;;;;5042350;28;20047;-92
2021/03/08 06:34:57;;;;;;;31.70;15.30;;;4.40;93.80;;;;;;5042234;28;20068;-92
2021/03/08 06:37:41;;;;;;;;;;;;;;;;;;;;;
2021/03/08 06:40:24;;;;;;;30.17;13.98;;;4.40;93.60;;;;;;5058554;28;20027;-94
2021/03/08 06:43:28;;;;;;;27.30;14.43;;;4.40;93.60;;;;;;5074968;28;20033;-93
2021/03/08 06:46:12;;;;;;;24.65;13.85;;;4.40;93.30;;;;;;5016494;28;20059;-93
2021/03/08 06:48:47;;;;;;;25.35;13.93;;;4.40;93.60;;;;;;5037905;28;20092;-93
2021/03/08 06:52:02;;;;;;;28.88;16.20;;;4.50;93.60;;;;;;5022229;28;20036;-93
2021/03/08 06:55:06;;;;;;;25.45;14.77;;;4.50;93.60;;;;;;5038954;28;20272;-93
2021/03/08 06:57:36;;;;;;;33.85;15.73;;;4.60;93.40;;;;;;4967023;28;20053;-93
2021/03/08 07:03:39;;;;;;;31.20;17.20;;;4.60;93.50;;;;;;4994835;28;20027;-91
2021/03/08 07:06:23;;;;;;;28.88;13.98;;;4.60;93.20;;;;;;4954340;28;20053;-93
2021/03/08 07:08:51;;;;;;;31.75;15.57;;;4.70;93.40;;;;;;4960061;28;20058;-91
2021/03/08 07:11:26;;;;;;;34.10;16.52;;;4.70;93.40;;;;;;4945568;28;20321;-92
2021/03/08 07:14:02;;;;;;;26.98;15.10;;;4.80;93.20;;;;;;4994281;28;20073;-91
2021/03/08 07:17:00;;;;;;;29.75;14.95;;;4.90;93.20;;;;;;4983796;28;20086;-93
2021/03/08 07:19:29;;;;;;;27.38;14.15;;;4.90;92.90;;;;;;4990358;28;20072;-92
2021/03/08 07:22:06;;;;;;;28.95;14.90;;;5.00;92.90;;;;;;4952272;28;20122;-93
2021/03/08 07:25:01;;;;;;;28.55;14.52;;;5.00;92.70;;;;;;4990328;28;20043;-91
2021/03/08 07:28:01;;;;;;;24.45;13.32;;;5.00;92.60;;;;;;4958778;28;20125;-92
2021/03/08 07:30:56;;;;;;;;;;;;;;;;;;;;;
2021/03/08 07:33:23;;;;;;;28.80;14.00;;;5.10;92.60;;;;;;4957256;28;20031;-92
2021/03/08 07:35:53;;;;;;;25.02;14.60;;;5.20;92.40;;;;;;4987941;28;20039;-93
2021/03/08 07:38:35;;;;;;;22.13;13.65;;;5.20;92.50;;;;;;4989430;28;20095;-93
2021/03/08 07:41:38;;;;;;;25.85;11.43;;;5.30;92.40;;;;;;4961383;28;20047;-94
2021/03/08 07:44:20;;;;;;;21.17;12.02;;;5.30;91.80;;;;;;4985801;28;20104;-92
2021/03/08 07:46:52;;;;;;;22.30;11.97;;;5.20;91.70;;;;;;4954317;28;20045;-93
2021/03/08 07:49:42;;;;;;;22.15;11.40;;;5.20;91.50;;;;;;4993949;28;20327;-92
2021/03/08 07:52:19;;;;;;;22.88;12.82;;;5.10;91.70;;;;;;4956570;28;20122;-93
2021/03/08 07:54:58;;;;;;;23.15;12.18;;;5.00;92.00;;;;;;4951525;28;20161;-92
2021/03/08 07:57:32;;;;;;;18.33;11.20;;;4.90;91.90;;;;;;4955389;28;20165;-92
2021/03/08 08:00:09;;;;;;;19.45;11.73;;;4.90;92.00;;;;;;5055526;28;20408;-91
2021/03/08 08:02:40;;;;;;;19.92;12.27;;;4.80;92.10;;;;;;4950909;28;20408;-91
2021/03/08 08:05:09;;;;;;;18.02;11.95;;;4.80;92.10;;;;;;4961966;28;20039;-93
2021/03/08 08:07:42;;;;;;;21.38;12.07;;;4.80;92.10;;;;;;5002456;28;20162;-91
2021/03/08 08:10:17;;;;;;;18.60;10.68;;;4.80;92.00;;;;;;4973864;28;20034;-92
2021/03/08 08:12:49;;;;;;;17.15;10.30;;;4.80;91.90;;;;;;4999822;28;20384;-92
2021/03/08 08:15:32;;;;;;;17.17;9.77;;;4.80;91.80;;;;;;4962072;28;20050;-92
2021/03/08 08:18:25;;;;;;;15.38;9.52;;;4.90;91.60;;;;;;4957011;28;20039;-93
2021/03/08 08:20:52;;;;;;;;;;;5.00;91.90;;;;;;4989913;28;20050;-93
2021/03/08 08:23:39;;;;;;;12.85;7.90;;;5.10;91.70;;;;;;4960600;28;19910;-93
2021/03/08 08:26:31;;;;;;;12.57;8.55;;;5.20;91.50;;;;;;4964118;28;20401;-92
2021/03/08 08:29:06;;;;;;;18.67;8.00;;;5.30;90.70;;;;;;5011756;28;20084;-92
2021/03/08 08:32:19;;;;;;;;;;;;;;;;;;;;;
2021/03/08 08:34:51;;;;;;;;;;;5.60;90.00;;;;;;4956014;28;20410;-93
2021/03/08 08:37:26;;;;;;;15.93;8.15;;;5.60;88.80;;;;;;4962314;28;19945;-92
2021/03/08 08:40:00;;;;;;;16.35;9.45;;;5.60;88.80;;;;;;4993384;28;20035;-92
2021/03/08 08:42:41;;;;;;;13.60;8.70;;;5.60;89.40;;;;;;4966728;28;20043;-93
2021/03/08 08:45:31;;;;;;;15.75;9.75;;;5.60;88.40;;;;;;4958484;28;20136;-93
2021/03/08 08:48:06;;;;;;;14.07;9.05;;;5.50;90.20;;;;;;4946120;28;20035;-94
2021/03/08 08:51:16;;;;;;;14.07;8.07;;;5.60;90.10;;;;;;4996146;28;20042;-92
2021/03/08 08:53:59;;;;;;;13.25;7.57;;;5.60;89.10;;;;;;5056352;28;20253;-93
2021/03/08 08:56:50;;;;;;;13.75;7.57;;;5.70;88.40;;;;;;5001117;28;20043;-93
2021/03/08 08:59:22;;;;;;;15.05;9.40;;;5.70;87.90;;;;;;4955841;28;20093;-93
2021/03/08 09:01:52;;;;;;;16.83;8.25;;;5.60;87.40;;;;;;4970665;28;20082;-93
2021/03/08 09:04:44;;;;;;;17.67;8.43;;;5.50;87.20;;;;;;4951409;28;20054;-93
2021/03/08 09:08:03;;;;;;;12.23;8.38;;;5.50;88.30;;;;;;4958474;28;20047;-94
2021/03/08 09:14:34;;;;;;;11.07;6.85;;;5.80;86.90;;;;;;4960331;28;20110;-92
2021/03/08 09:28:10;;;;;;;;;;;;;;;;;;;;;
2021/03/08 10:02:55;;;;;;;;;;;;;;;;;;;;;
2021/03/08 14:46:11;;;;;;;2.42;1.83;;;10.00;40.50;;;;;;4977596;28;20084;-94
2021/03/08 15:29:44;;;;;;;2.42;1.27;;;9.20;43.30;;;;;;4979136;28;20088;-94
2021/03/08 15:33:15;;;;;;;;;;;;;;;;;;;;;
2021/03/08 15:36:16;;;;;;;3.13;1.38;;;8.90;44.00;;;;;;4952488;28;20039;-94
2021/03/08 15:39:10;;;;;;;3.17;1.52;;;8.70;44.70;;;;;;4958912;28;20096;-94
2021/03/08 15:42:05;;;;;;;3.58;1.92;;;8.60;45.00;;;;;;4978423;28;20291;-94
2021/03/08 15:45:05;;;;;;;;;;;;;;;;;;;;;
2021/03/08 15:47:55;;;;;;;1.58;1.23;;;8.40;45.50;;;;;;4990763;28;20038;-93
2021/03/08 15:54:18;;;;;;;1.83;1.42;;;8.40;45.10;;;;;;4997711;28;20041;-92
2021/03/08 15:59:54;;;;;;;5.13;1.50;;;8.50;45.10;;;;;;4981169;28;20698;-92
2021/03/08 16:02:23;;;;;;;3.33;1.55;;;8.50;43.90;;;;;;4970157;28;20034;-92
2021/03/08 16:04:54;;;;;;;2.30;1.30;;;8.50;45.30;;;;;;4962192;28;20134;-92
